sensor_id;sensor_type;location;lat;lon;timestamp;temperature;humidity
66934;DHT22;53846;51.984;5.890;2022-07-05T00:00:15;19.70;57.00
66934;DHT22;53846;51.984;5.890;2022-07-05T00:02:47;19.60;57.40
66934;DHT22;53846;51.984;5.890;2022-07-05T00:05:16;19.90;57.50
66934;DHT22;53846;51.984;5.890;2022-07-05T00:07:45;19.80;57.80
66934;DHT22;53846;51.984;5.890;2022-07-05T00:10:14;19.70;57.70
66934;DHT22;53846;51.984;5.890;2022-07-05T00:12:46;19.30;58.00
66934;DHT22;53846;51.984;5.890;2022-07-05T00:15:15;19.50;58.10
66934;DHT22;53846;51.984;5.890;2022-07-05T00:17:44;19.30;58.20
66934;DHT22;53846;51.984;5.890;2022-07-05T00:20:13;19.70;58.20
66934;DHT22;53846;51.984;5.890;2022-07-05T00:22:45;19.40;57.90
66934;DHT22;53846;51.984;5.890;2022-07-05T00:25:14;19.60;58.30
66934;DHT22;53846;51.984;5.890;2022-07-05T00:27:46;19.40;58.70
66934;DHT22;53846;51.984;5.890;2022-07-05T00:30:18;19.30;59.80
66934;DHT22;53846;51.984;5.890;2022-07-05T00:32:48;19.40;59.80
66934;DHT22;53846;51.984;5.890;2022-07-05T00:35:17;19.10;59.40
66934;DHT22;53846;51.984;5.890;2022-07-05T00:37:46;19.40;59.30
66934;DHT22;53846;51.984;5.890;2022-07-05T00:40:15;19.20;59.20
66934;DHT22;53846;51.984;5.890;2022-07-05T00:42:48;19.30;59.80
66934;DHT22;53846;51.984;5.890;2022-07-05T00:45:17;19.20;60.40
66934;DHT22;53846;51.984;5.890;2022-07-05T00:47:47;19.20;60.30
66934;DHT22;53846;51.984;5.890;2022-07-05T00:50:16;18.90;59.90
66934;DHT22;53846;51.984;5.890;2022-07-05T00:52:46;19.20;60.70
66934;DHT22;53846;51.984;5.890;2022-07-05T00:55:15;19.10;60.80
66934;DHT22;53846;51.984;5.890;2022-07-05T00:57:48;19.10;61.10
66934;DHT22;53846;51.984;5.890;2022-07-05T01:00:18;19.00;60.90
66934;DHT22;53846;51.984;5.890;2022-07-05T01:02:47;19.00;61.40
66934;DHT22;53846;51.984;5.890;2022-07-05T01:05:18;18.90;62.00
66934;DHT22;53846;51.984;5.890;2022-07-05T01:07:50;19.10;62.60
66934;DHT22;53846;51.984;5.890;2022-07-05T01:10:19;18.90;62.40
66934;DHT22;53846;51.984;5.890;2022-07-05T01:12:54;18.80;62.00
66934;DHT22;53846;51.984;5.890;2022-07-05T01:15:24;18.80;61.60
66934;DHT22;53846;51.984;5.890;2022-07-05T01:17:54;18.90;62.20
66934;DHT22;53846;51.984;5.890;2022-07-05T01:20:24;18.70;61.80
66934;DHT22;53846;51.984;5.890;2022-07-05T01:22:57;19.00;61.60
66934;DHT22;53846;51.984;5.890;2022-07-05T01:25:29;18.70;61.90
66934;DHT22;53846;51.984;5.890;2022-07-05T01:27:59;18.50;62.00
66934;DHT22;53846;51.984;5.890;2022-07-05T01:30:30;18.60;61.80
66934;DHT22;53846;51.984;5.890;2022-07-05T01:33:01;18.60;61.60
66934;DHT22;53846;51.984;5.890;2022-07-05T01:35:31;18.60;61.60
66934;DHT22;53846;51.984;5.890;2022-07-05T01:38:04;18.60;61.90
66934;DHT22;53846;51.984;5.890;2022-07-05T01:40:39;18.90;62.40
66934;DHT22;53846;51.984;5.890;2022-07-05T01:43:09;18.50;62.70
66934;DHT22;53846;51.984;5.890;2022-07-05T01:45:38;18.50;62.90
66934;DHT22;53846;51.984;5.890;2022-07-05T01:48:12;18.50;62.60
66934;DHT22;53846;51.984;5.890;2022-07-05T01:50:44;18.50;62.60
66934;DHT22;53846;51.984;5.890;2022-07-05T01:53:18;18.40;62.70
66934;DHT22;53846;51.984;5.890;2022-07-05T01:55:51;18.20;64.40
66934;DHT22;53846;51.984;5.890;2022-07-05T01:58:21;18.30;63.70
66934;DHT22;53846;51.984;5.890;2022-07-05T02:00:53;18.20;63.00
66934;DHT22;53846;51.984;5.890;2022-07-05T02:03:25;18.40;62.90
66934;DHT22;53846;51.984;5.890;2022-07-05T02:05:54;18.30;63.80
66934;DHT22;53846;51.984;5.890;2022-07-05T02:08:29;18.40;63.40
66934;DHT22;53846;51.984;5.890;2022-07-05T02:10:58;18.30;63.20
66934;DHT22;53846;51.984;5.890;2022-07-05T02:13:29;18.60;63.20
66934;DHT22;53846;51.984;5.890;2022-07-05T02:16:03;18.20;62.80
66934;DHT22;53846;51.984;5.890;2022-07-05T02:18:32;18.20;62.70
66934;DHT22;53846;51.984;5.890;2022-07-05T02:21:01;18.30;63.10
66934;DHT22;53846;51.984;5.890;2022-07-05T02:23:33;18.20;63.30
66934;DHT22;53846;51.984;5.890;2022-07-05T02:26:05;18.20;63.70
66934;DHT22;53846;51.984;5.890;2022-07-05T02:28:38;18.20;63.80
66934;DHT22;53846;51.984;5.890;2022-07-05T02:31:09;18.30;63.60
66934;DHT22;53846;51.984;5.890;2022-07-05T02:33:39;18.20;63.70
66934;DHT22;53846;51.984;5.890;2022-07-05T02:36:10;18.20;63.70
66934;DHT22;53846;51.984;5.890;2022-07-05T02:38:42;18.20;63.40
66934;DHT22;53846;51.984;5.890;2022-07-05T02:41:12;18.20;63.50
66934;DHT22;53846;51.984;5.890;2022-07-05T02:43:45;18.20;63.40
66934;DHT22;53846;51.984;5.890;2022-07-05T02:46:19;18.00;63.70
66934;DHT22;53846;51.984;5.890;2022-07-05T02:48:48;18.30;64.30
66934;DHT22;53846;51.984;5.890;2022-07-05T02:51:20;17.80;64.10
66934;DHT22;53846;51.984;5.890;2022-07-05T02:53:54;18.10;64.10
66934;DHT22;53846;51.984;5.890;2022-07-05T02:56:25;18.10;64.20
66934;DHT22;53846;51.984;5.890;2022-07-05T02:58:58;18.10;64.20
66934;DHT22;53846;51.984;5.890;2022-07-05T03:01:30;18.10;64.10
66934;DHT22;53846;51.984;5.890;2022-07-05T03:04:03;17.80;64.80
66934;DHT22;53846;51.984;5.890;2022-07-05T03:06:33;18.30;64.90
66934;DHT22;53846;51.984;5.890;2022-07-05T03:09:05;18.10;64.40
66934;DHT22;53846;51.984;5.890;2022-07-05T03:11:36;18.40;64.80
66934;DHT22;53846;51.984;5.890;2022-07-05T03:14:08;18.00;64.50
66934;DHT22;53846;51.984;5.890;2022-07-05T03:16:37;18.20;64.80
66934;DHT22;53846;51.984;5.890;2022-07-05T03:19:08;18.20;64.90
66934;DHT22;53846;51.984;5.890;2022-07-05T03:21:38;18.20;64.40
66934;DHT22;53846;51.984;5.890;2022-07-05T03:24:12;18.30;64.60
66934;DHT22;53846;51.984;5.890;2022-07-05T03:26:41;18.30;65.80
66934;DHT22;53846;51.984;5.890;2022-07-05T03:29:10;18.30;66.10
66934;DHT22;53846;51.984;5.890;2022-07-05T03:31:42;18.30;65.70
66934;DHT22;53846;51.984;5.890;2022-07-05T03:34:12;18.20;65.70
66934;DHT22;53846;51.984;5.890;2022-07-05T03:36:42;18.20;66.10
66934;DHT22;53846;51.984;5.890;2022-07-05T03:39:18;18.30;66.10
66934;DHT22;53846;51.984;5.890;2022-07-05T03:41:48;18.10;66.50
66934;DHT22;53846;51.984;5.890;2022-07-05T03:44:22;18.20;67.50
66934;DHT22;53846;51.984;5.890;2022-07-05T03:46:54;18.30;67.40
66934;DHT22;53846;51.984;5.890;2022-07-05T03:49:24;17.90;67.30
66934;DHT22;53846;51.984;5.890;2022-07-05T03:51:55;18.10;67.10
66934;DHT22;53846;51.984;5.890;2022-07-05T03:54:29;18.00;67.80
66934;DHT22;53846;51.984;5.890;2022-07-05T03:56:59;17.90;67.30
66934;DHT22;53846;51.984;5.890;2022-07-05T03:59:29;18.30;68.30
66934;DHT22;53846;51.984;5.890;2022-07-05T04:02:04;18.30;67.80
66934;DHT22;53846;51.984;5.890;2022-07-05T04:04:34;18.20;67.50
66934;DHT22;53846;51.984;5.890;2022-07-05T04:07:04;18.30;67.50
66934;DHT22;53846;51.984;5.890;2022-07-05T04:09:37;18.30;67.30
66934;DHT22;53846;51.984;5.890;2022-07-05T04:12:09;18.30;68.00
66934;DHT22;53846;51.984;5.890;2022-07-05T04:14:41;18.30;68.20
66934;DHT22;53846;51.984;5.890;2022-07-05T04:17:10;18.30;68.60
66934;DHT22;53846;51.984;5.890;2022-07-05T04:19:40;18.40;68.60
66934;DHT22;53846;51.984;5.890;2022-07-05T04:22:09;18.30;68.80
66934;DHT22;53846;51.984;5.890;2022-07-05T04:24:41;18.30;68.60
66934;DHT22;53846;51.984;5.890;2022-07-05T04:27:23;18.20;69.80
66934;DHT22;53846;51.984;5.890;2022-07-05T04:29:53;18.10;69.10
66934;DHT22;53846;51.984;5.890;2022-07-05T04:32:22;18.30;68.90
66934;DHT22;53846;51.984;5.890;2022-07-05T04:34:52;18.60;69.70
66934;DHT22;53846;51.984;5.890;2022-07-05T04:37:21;18.40;69.10
66934;DHT22;53846;51.984;5.890;2022-07-05T04:39:53;18.50;69.00
66934;DHT22;53846;51.984;5.890;2022-07-05T04:42:22;18.50;69.10
66934;DHT22;53846;51.984;5.890;2022-07-05T04:44:54;18.40;69.00
66934;DHT22;53846;51.984;5.890;2022-07-05T04:47:24;18.40;69.20
66934;DHT22;53846;51.984;5.890;2022-07-05T04:49:56;18.60;69.30
66934;DHT22;53846;51.984;5.890;2022-07-05T04:52:27;18.60;68.90
66934;DHT22;53846;51.984;5.890;2022-07-05T04:55:00;18.30;68.80
66934;DHT22;53846;51.984;5.890;2022-07-05T04:57:37;18.50;68.60
66934;DHT22;53846;51.984;5.890;2022-07-05T05:00:08;18.50;68.80
66934;DHT22;53846;51.984;5.890;2022-07-05T05:02:38;18.40;69.40
66934;DHT22;53846;51.984;5.890;2022-07-05T05:05:08;18.50;69.90
66934;DHT22;53846;51.984;5.890;2022-07-05T05:07:41;18.50;69.70
66934;DHT22;53846;51.984;5.890;2022-07-05T05:10:13;18.20;69.90
66934;DHT22;53846;51.984;5.890;2022-07-05T05:12:42;18.40;69.60
66934;DHT22;53846;51.984;5.890;2022-07-05T05:15:11;18.50;69.30
66934;DHT22;53846;51.984;5.890;2022-07-05T05:17:42;18.60;69.70
66934;DHT22;53846;51.984;5.890;2022-07-05T05:20:17;18.50;70.00
66934;DHT22;53846;51.984;5.890;2022-07-05T05:22:47;18.50;70.80
66934;DHT22;53846;51.984;5.890;2022-07-05T05:25:19;18.60;70.20
66934;DHT22;53846;51.984;5.890;2022-07-05T05:27:49;18.50;69.90
66934;DHT22;53846;51.984;5.890;2022-07-05T05:30:19;18.60;69.90
66934;DHT22;53846;51.984;5.890;2022-07-05T05:32:48;18.70;70.80
66934;DHT22;53846;51.984;5.890;2022-07-05T05:35:17;18.40;71.00
66934;DHT22;53846;51.984;5.890;2022-07-05T05:37:51;18.70;70.90
66934;DHT22;53846;51.984;5.890;2022-07-05T05:40:24;18.70;71.00
66934;DHT22;53846;51.984;5.890;2022-07-05T05:42:54;18.70;70.90
66934;DHT22;53846;51.984;5.890;2022-07-05T05:45:23;19.00;71.00
66934;DHT22;53846;51.984;5.890;2022-07-05T05:47:55;18.60;70.50
66934;DHT22;53846;51.984;5.890;2022-07-05T05:50:27;18.80;70.40
66934;DHT22;53846;51.984;5.890;2022-07-05T05:52:57;18.90;70.10
66934;DHT22;53846;51.984;5.890;2022-07-05T05:55:32;18.90;71.10
66934;DHT22;53846;51.984;5.890;2022-07-05T05:58:10;18.90;70.60
66934;DHT22;53846;51.984;5.890;2022-07-05T06:00:40;19.00;70.90
66934;DHT22;53846;51.984;5.890;2022-07-05T06:03:10;18.90;71.10
66934;DHT22;53846;51.984;5.890;2022-07-05T06:05:39;19.20;70.70
66934;DHT22;53846;51.984;5.890;2022-07-05T06:08:08;18.80;72.00
66934;DHT22;53846;51.984;5.890;2022-07-05T06:10:40;19.00;71.60
66934;DHT22;53846;51.984;5.890;2022-07-05T06:13:11;19.30;71.10
66934;DHT22;53846;51.984;5.890;2022-07-05T06:15:41;19.10;70.30
66934;DHT22;53846;51.984;5.890;2022-07-05T06:18:11;19.20;69.90
66934;DHT22;53846;51.984;5.890;2022-07-05T06:20:40;19.20;70.30
66934;DHT22;53846;51.984;5.890;2022-07-05T06:23:09;19.70;70.10
66934;DHT22;53846;51.984;5.890;2022-07-05T06:25:41;19.40;69.50
66934;DHT22;53846;51.984;5.890;2022-07-05T06:28:10;19.50;69.50
66934;DHT22;53846;51.984;5.890;2022-07-05T06:30:39;19.30;69.30
66934;DHT22;53846;51.984;5.890;2022-07-05T06:33:08;19.50;69.90
66934;DHT22;53846;51.984;5.890;2022-07-05T06:35:38;19.60;69.50
66934;DHT22;53846;51.984;5.890;2022-07-05T06:38:08;19.70;69.70
66934;DHT22;53846;51.984;5.890;2022-07-05T06:40:44;19.80;70.00
66934;DHT22;53846;51.984;5.890;2022-07-05T06:43:18;19.70;70.40
66934;DHT22;53846;51.984;5.890;2022-07-05T06:46:03;19.70;69.20
66934;DHT22;53846;51.984;5.890;2022-07-05T06:48:33;19.90;68.60
66934;DHT22;53846;51.984;5.890;2022-07-05T06:51:02;19.90;68.00
66934;DHT22;53846;51.984;5.890;2022-07-05T06:53:32;19.70;67.30
66934;DHT22;53846;51.984;5.890;2022-07-05T06:56:07;19.90;67.40
66934;DHT22;53846;51.984;5.890;2022-07-05T06:58:36;19.90;67.60
66934;DHT22;53846;51.984;5.890;2022-07-05T07:01:05;19.90;67.70
66934;DHT22;53846;51.984;5.890;2022-07-05T07:03:34;19.90;67.20
66934;DHT22;53846;51.984;5.890;2022-07-05T07:06:04;20.20;67.20
66934;DHT22;53846;51.984;5.890;2022-07-05T07:08:39;19.80;67.30
66934;DHT22;53846;51.984;5.890;2022-07-05T07:11:23;20.00;67.30
66934;DHT22;53846;51.984;5.890;2022-07-05T07:13:53;19.80;67.80
66934;DHT22;53846;51.984;5.890;2022-07-05T07:16:22;20.10;67.90
66934;DHT22;53846;51.984;5.890;2022-07-05T07:18:51;19.70;67.40
66934;DHT22;53846;51.984;5.890;2022-07-05T07:21:20;20.10;67.10
66934;DHT22;53846;51.984;5.890;2022-07-05T07:23:49;20.20;67.40
66934;DHT22;53846;51.984;5.890;2022-07-05T07:26:18;20.20;66.70
66934;DHT22;53846;51.984;5.890;2022-07-05T07:28:50;20.20;67.40
66934;DHT22;53846;51.984;5.890;2022-07-05T07:31:19;20.30;68.20
66934;DHT22;53846;51.984;5.890;2022-07-05T07:33:48;20.40;66.40
66934;DHT22;53846;51.984;5.890;2022-07-05T07:36:17;20.30;64.80
66934;DHT22;53846;51.984;5.890;2022-07-05T07:38:52;20.50;64.80
66934;DHT22;53846;51.984;5.890;2022-07-05T07:41:25;20.80;63.10
66934;DHT22;53846;51.984;5.890;2022-07-05T07:46:43;21.00;62.80
66934;DHT22;53846;51.984;5.890;2022-07-05T07:49:15;21.00;63.00
66934;DHT22;53846;51.984;5.890;2022-07-05T07:51:44;20.90;62.90
66934;DHT22;53846;51.984;5.890;2022-07-05T07:54:14;21.20;63.40
66934;DHT22;53846;51.984;5.890;2022-07-05T07:56:43;21.10;62.60
66934;DHT22;53846;51.984;5.890;2022-07-05T07:59:17;20.90;62.60
66934;DHT22;53846;51.984;5.890;2022-07-05T08:01:49;21.30;62.80
66934;DHT22;53846;51.984;5.890;2022-07-05T08:04:19;21.40;62.50
66934;DHT22;53846;51.984;5.890;2022-07-05T08:06:49;21.30;61.00
66934;DHT22;53846;51.984;5.890;2022-07-05T08:09:21;21.20;60.90
66934;DHT22;53846;51.984;5.890;2022-07-05T08:11:50;21.00;59.80
66934;DHT22;53846;51.984;5.890;2022-07-05T08:14:22;21.40;60.30
66934;DHT22;53846;51.984;5.890;2022-07-05T08:16:51;21.40;60.50
66934;DHT22;53846;51.984;5.890;2022-07-05T08:19:20;21.50;60.00
66934;DHT22;53846;51.984;5.890;2022-07-05T08:22:03;21.60;59.60
66934;DHT22;53846;51.984;5.890;2022-07-05T08:24:34;21.60;57.80
66934;DHT22;53846;51.984;5.890;2022-07-05T08:27:03;21.40;58.00
66934;DHT22;53846;51.984;5.890;2022-07-05T08:29:35;21.70;57.30
66934;DHT22;53846;51.984;5.890;2022-07-05T08:32:06;22.00;58.10
66934;DHT22;53846;51.984;5.890;2022-07-05T08:34:35;21.90;58.40
66934;DHT22;53846;51.984;5.890;2022-07-05T08:37:05;21.90;58.60
66934;DHT22;53846;51.984;5.890;2022-07-05T08:39:35;21.90;58.20
66934;DHT22;53846;51.984;5.890;2022-07-05T08:42:08;22.00;56.40
66934;DHT22;53846;51.984;5.890;2022-07-05T08:44:42;21.90;56.60
66934;DHT22;53846;51.984;5.890;2022-07-05T08:47:12;21.90;56.40
66934;DHT22;53846;51.984;5.890;2022-07-05T08:49:43;21.90;55.60
66934;DHT22;53846;51.984;5.890;2022-07-05T08:52:14;21.80;56.10
66934;DHT22;53846;51.984;5.890;2022-07-05T08:54:46;22.10;57.30
66934;DHT22;53846;51.984;5.890;2022-07-05T08:57:15;22.00;57.30
66934;DHT22;53846;51.984;5.890;2022-07-05T08:59:47;21.90;58.20
66934;DHT22;53846;51.984;5.890;2022-07-05T09:02:16;22.10;57.50
66934;DHT22;53846;51.984;5.890;2022-07-05T09:04:46;22.50;58.40
66934;DHT22;53846;51.984;5.890;2022-07-05T09:07:23;22.20;57.60
66934;DHT22;53846;51.984;5.890;2022-07-05T09:09:56;22.40;57.10
66934;DHT22;53846;51.984;5.890;2022-07-05T09:12:28;22.30;56.00
66934;DHT22;53846;51.984;5.890;2022-07-05T09:15:00;22.30;56.10
66934;DHT22;53846;51.984;5.890;2022-07-05T09:17:31;22.50;56.70
66934;DHT22;53846;51.984;5.890;2022-07-05T09:20:08;22.90;56.80
66934;DHT22;53846;51.984;5.890;2022-07-05T09:22:45;22.80;52.70
66934;DHT22;53846;51.984;5.890;2022-07-05T09:25:17;22.90;53.70
66934;DHT22;53846;51.984;5.890;2022-07-05T09:27:48;22.90;54.10
66934;DHT22;53846;51.984;5.890;2022-07-05T09:30:31;22.80;54.20
66934;DHT22;53846;51.984;5.890;2022-07-05T09:33:05;22.80;54.50
66934;DHT22;53846;51.984;5.890;2022-07-05T09:35:35;22.90;53.00
66934;DHT22;53846;51.984;5.890;2022-07-05T09:38:07;22.90;52.80
66934;DHT22;53846;51.984;5.890;2022-07-05T09:40:46;22.70;52.40
66934;DHT22;53846;51.984;5.890;2022-07-05T09:43:18;22.80;52.50
66934;DHT22;53846;51.984;5.890;2022-07-05T09:45:54;22.50;51.90
66934;DHT22;53846;51.984;5.890;2022-07-05T09:48:24;22.40;54.70
66934;DHT22;53846;51.984;5.890;2022-07-05T09:51:04;22.40;55.40
66934;DHT22;53846;51.984;5.890;2022-07-05T09:53:44;22.30;55.10
66934;DHT22;53846;51.984;5.890;2022-07-05T09:56:13;22.30;54.00
66934;DHT22;53846;51.984;5.890;2022-07-05T09:58:44;22.40;57.40
66934;DHT22;53846;51.984;5.890;2022-07-05T10:01:29;22.00;58.00
66934;DHT22;53846;51.984;5.890;2022-07-05T10:04:00;21.90;57.30
66934;DHT22;53846;51.984;5.890;2022-07-05T10:06:32;22.00;58.70
66934;DHT22;53846;51.984;5.890;2022-07-05T10:09:01;22.00;58.50
66934;DHT22;53846;51.984;5.890;2022-07-05T10:11:31;22.10;57.50
66934;DHT22;53846;51.984;5.890;2022-07-05T10:14:03;22.10;57.90
66934;DHT22;53846;51.984;5.890;2022-07-05T10:16:40;22.20;57.80
66934;DHT22;53846;51.984;5.890;2022-07-05T10:19:15;22.40;56.20
66934;DHT22;53846;51.984;5.890;2022-07-05T10:21:47;22.20;57.10
66934;DHT22;53846;51.984;5.890;2022-07-05T10:24:17;22.70;58.20
66934;DHT22;53846;51.984;5.890;2022-07-05T10:26:47;22.50;57.00
66934;DHT22;53846;51.984;5.890;2022-07-05T10:29:17;22.80;56.20
66934;DHT22;53846;51.984;5.890;2022-07-05T10:31:49;22.60;55.80
66934;DHT22;53846;51.984;5.890;2022-07-05T10:34:18;23.00;55.30
66934;DHT22;53846;51.984;5.890;2022-07-05T10:36:48;23.00;54.60
66934;DHT22;53846;51.984;5.890;2022-07-05T10:39:17;22.80;54.00
66934;DHT22;53846;51.984;5.890;2022-07-05T10:41:50;23.00;54.00
66934;DHT22;53846;51.984;5.890;2022-07-05T10:44:26;23.20;54.20
66934;DHT22;53846;51.984;5.890;2022-07-05T10:47:07;23.20;53.70
66934;DHT22;53846;51.984;5.890;2022-07-05T10:49:37;23.40;52.30
66934;DHT22;53846;51.984;5.890;2022-07-05T10:52:21;23.40;51.50
66934;DHT22;53846;51.984;5.890;2022-07-05T10:58:18;23.60;51.70
66934;DHT22;53846;51.984;5.890;2022-07-05T11:00:49;23.80;52.30
66934;DHT22;53846;51.984;5.890;2022-07-05T11:03:41;23.90;51.90
66934;DHT22;53846;51.984;5.890;2022-07-05T11:06:19;24.20;52.00
66934;DHT22;53846;51.984;5.890;2022-07-05T11:12:06;24.20;51.50
66934;DHT22;53846;51.984;5.890;2022-07-05T11:14:37;24.20;51.00
66934;DHT22;53846;51.984;5.890;2022-07-05T11:17:22;24.10;50.30
66934;DHT22;53846;51.984;5.890;2022-07-05T11:20:04;23.80;50.80
66934;DHT22;53846;51.984;5.890;2022-07-05T11:22:36;23.90;52.00
66934;DHT22;53846;51.984;5.890;2022-07-05T11:25:07;23.80;51.00
66934;DHT22;53846;51.984;5.890;2022-07-05T11:27:37;23.70;51.30
66934;DHT22;53846;51.984;5.890;2022-07-05T11:30:26;23.70;51.90
66934;DHT22;53846;51.984;5.890;2022-07-05T11:32:58;23.60;52.10
66934;DHT22;53846;51.984;5.890;2022-07-05T11:35:32;23.60;50.10
66934;DHT22;53846;51.984;5.890;2022-07-05T11:38:07;23.80;51.00
66934;DHT22;53846;51.984;5.890;2022-07-05T11:40:37;23.80;49.40
66934;DHT22;53846;51.984;5.890;2022-07-05T11:43:06;23.70;49.10
66934;DHT22;53846;51.984;5.890;2022-07-05T11:45:37;23.90;49.50
66934;DHT22;53846;51.984;5.890;2022-07-05T11:48:14;24.10;48.80
66934;DHT22;53846;51.984;5.890;2022-07-05T11:50:47;24.20;47.40
66934;DHT22;53846;51.984;5.890;2022-07-05T11:53:25;24.20;46.70
66934;DHT22;53846;51.984;5.890;2022-07-05T11:55:56;24.40;46.50
66934;DHT22;53846;51.984;5.890;2022-07-05T11:58:30;24.20;46.70
66934;DHT22;53846;51.984;5.890;2022-07-05T12:01:00;24.20;47.50
66934;DHT22;53846;51.984;5.890;2022-07-05T12:03:29;24.30;46.60
66934;DHT22;53846;51.984;5.890;2022-07-05T12:06:09;24.70;46.40
66934;DHT22;53846;51.984;5.890;2022-07-05T12:08:39;24.40;45.00
66934;DHT22;53846;51.984;5.890;2022-07-05T12:11:10;24.40;45.10
66934;DHT22;53846;51.984;5.890;2022-07-05T12:13:52;24.40;45.00
66934;DHT22;53846;51.984;5.890;2022-07-05T12:16:21;24.40;45.50
66934;DHT22;53846;51.984;5.890;2022-07-05T12:18:53;24.40;44.90
66934;DHT22;53846;51.984;5.890;2022-07-05T12:21:29;24.20;46.10
66934;DHT22;53846;51.984;5.890;2022-07-05T12:23:58;24.50;45.80
66934;DHT22;53846;51.984;5.890;2022-07-05T12:26:30;24.50;45.50
66934;DHT22;53846;51.984;5.890;2022-07-05T12:29:00;24.40;46.50
66934;DHT22;53846;51.984;5.890;2022-07-05T12:31:29;24.60;46.20
66934;DHT22;53846;51.984;5.890;2022-07-05T12:34:16;24.80;46.00
66934;DHT22;53846;51.984;5.890;2022-07-05T12:36:50;24.80;46.10
66934;DHT22;53846;51.984;5.890;2022-07-05T12:39:19;24.90;45.60
66934;DHT22;53846;51.984;5.890;2022-07-05T12:41:48;25.10;44.70
66934;DHT22;53846;51.984;5.890;2022-07-05T12:44:21;25.30;45.60
66934;DHT22;53846;51.984;5.890;2022-07-05T12:46:50;25.00;44.40
66934;DHT22;53846;51.984;5.890;2022-07-05T12:49:20;25.10;45.90
66934;DHT22;53846;51.984;5.890;2022-07-05T12:51:51;25.00;47.20
66934;DHT22;53846;51.984;5.890;2022-07-05T12:54:22;25.00;45.20
66934;DHT22;53846;51.984;5.890;2022-07-05T12:57:04;24.90;45.20
66934;DHT22;53846;51.984;5.890;2022-07-05T12:59:57;25.00;45.20
66934;DHT22;53846;51.984;5.890;2022-07-05T13:02:37;25.00;45.70
66934;DHT22;53846;51.984;5.890;2022-07-05T13:05:08;24.80;44.50
66934;DHT22;53846;51.984;5.890;2022-07-05T13:07:49;25.20;44.70
66934;DHT22;53846;51.984;5.890;2022-07-05T13:10:19;25.00;43.60
66934;DHT22;53846;51.984;5.890;2022-07-05T13:12:49;24.80;44.20
66934;DHT22;53846;51.984;5.890;2022-07-05T13:15:18;25.10;44.70
66934;DHT22;53846;51.984;5.890;2022-07-05T13:17:48;25.10;45.50
66934;DHT22;53846;51.984;5.890;2022-07-05T13:20:18;24.80;45.00
66934;DHT22;53846;51.984;5.890;2022-07-05T13:22:51;24.80;45.00
66934;DHT22;53846;51.984;5.890;2022-07-05T13:25:20;24.70;45.40
66934;DHT22;53846;51.984;5.890;2022-07-05T13:27:49;24.50;44.20
66934;DHT22;53846;51.984;5.890;2022-07-05T13:30:19;24.40;46.00
66934;DHT22;53846;51.984;5.890;2022-07-05T13:32:48;24.20;46.30
66934;DHT22;53846;51.984;5.890;2022-07-05T13:35:17;24.40;45.90
66934;DHT22;53846;51.984;5.890;2022-07-05T13:37:46;24.50;46.00
66934;DHT22;53846;51.984;5.890;2022-07-05T13:40:18;24.50;45.20
66934;DHT22;53846;51.984;5.890;2022-07-05T13:42:47;24.50;44.60
66934;DHT22;53846;51.984;5.890;2022-07-05T13:45:16;24.50;44.70
66934;DHT22;53846;51.984;5.890;2022-07-05T13:47:45;24.40;45.00
66934;DHT22;53846;51.984;5.890;2022-07-05T13:50:15;24.20;45.30
66934;DHT22;53846;51.984;5.890;2022-07-05T13:52:56;24.20;46.30
66934;DHT22;53846;51.984;5.890;2022-07-05T13:55:28;24.50;44.60
66934;DHT22;53846;51.984;5.890;2022-07-05T13:57:57;24.10;45.10
66934;DHT22;53846;51.984;5.890;2022-07-05T14:00:27;24.30;44.30
66934;DHT22;53846;51.984;5.890;2022-07-05T14:02:56;24.20;44.60
66934;DHT22;53846;51.984;5.890;2022-07-05T14:05:25;24.20;44.70
66934;DHT22;53846;51.984;5.890;2022-07-05T14:07:54;24.20;44.20
66934;DHT22;53846;51.984;5.890;2022-07-05T14:10:23;24.10;44.30
66934;DHT22;53846;51.984;5.890;2022-07-05T14:12:55;24.10;44.80
66934;DHT22;53846;51.984;5.890;2022-07-05T14:15:24;24.20;44.80
66934;DHT22;53846;51.984;5.890;2022-07-05T14:17:53;24.20;43.50
66934;DHT22;53846;51.984;5.890;2022-07-05T14:20:23;23.90;44.20
66934;DHT22;53846;51.984;5.890;2022-07-05T14:22:53;24.00;43.60
66934;DHT22;53846;51.984;5.890;2022-07-05T14:25:22;23.90;44.30
66934;DHT22;53846;51.984;5.890;2022-07-05T14:27:51;24.00;44.30
66934;DHT22;53846;51.984;5.890;2022-07-05T14:30:23;24.00;43.70
66934;DHT22;53846;51.984;5.890;2022-07-05T14:32:54;23.90;44.30
66934;DHT22;53846;51.984;5.890;2022-07-05T14:35:23;23.80;44.70
66934;DHT22;53846;51.984;5.890;2022-07-05T14:37:53;23.80;44.10
66934;DHT22;53846;51.984;5.890;2022-07-05T14:40:22;23.90;45.10
66934;DHT22;53846;51.984;5.890;2022-07-05T14:42:53;23.80;44.80
66934;DHT22;53846;51.984;5.890;2022-07-05T14:45:25;23.80;44.50
66934;DHT22;53846;51.984;5.890;2022-07-05T14:47:54;23.90;44.60
66934;DHT22;53846;51.984;5.890;2022-07-05T14:50:23;23.90;43.90
66934;DHT22;53846;51.984;5.890;2022-07-05T14:52:52;24.00;44.20
66934;DHT22;53846;51.984;5.890;2022-07-05T14:55:22;24.00;45.10
66934;DHT22;53846;51.984;5.890;2022-07-05T14:57:51;23.90;43.90
66934;DHT22;53846;51.984;5.890;2022-07-05T15:00:20;24.20;44.80
66934;DHT22;53846;51.984;5.890;2022-07-05T15:02:52;24.30;42.90
66934;DHT22;53846;51.984;5.890;2022-07-05T15:05:21;24.20;42.80
66934;DHT22;53846;51.984;5.890;2022-07-05T15:07:50;24.20;43.30
66934;DHT22;53846;51.984;5.890;2022-07-05T15:10:19;24.40;43.60
66934;DHT22;53846;51.984;5.890;2022-07-05T15:12:48;24.40;43.20
66934;DHT22;53846;51.984;5.890;2022-07-05T15:15:18;24.50;42.50
66934;DHT22;53846;51.984;5.890;2022-07-05T15:17:47;24.10;42.20
66934;DHT22;53846;51.984;5.890;2022-07-05T15:20:18;24.30;42.80
66934;DHT22;53846;51.984;5.890;2022-07-05T15:22:48;24.20;41.60
66934;DHT22;53846;51.984;5.890;2022-07-05T15:25:18;24.20;42.20
66934;DHT22;53846;51.984;5.890;2022-07-05T15:27:47;24.20;42.70
66934;DHT22;53846;51.984;5.890;2022-07-05T15:30:17;24.00;41.60
66934;DHT22;53846;51.984;5.890;2022-07-05T15:32:48;24.10;41.30
66934;DHT22;53846;51.984;5.890;2022-07-05T15:35:20;24.20;42.00
66934;DHT22;53846;51.984;5.890;2022-07-05T15:37:49;24.30;42.60
66934;DHT22;53846;51.984;5.890;2022-07-05T15:40:18;24.20;42.90
66934;DHT22;53846;51.984;5.890;2022-07-05T15:42:48;24.30;42.40
66934;DHT22;53846;51.984;5.890;2022-07-05T15:45:17;24.50;44.20
66934;DHT22;53846;51.984;5.890;2022-07-05T15:47:46;24.50;42.40
66934;DHT22;53846;51.984;5.890;2022-07-05T15:50:15;24.60;41.40
66934;DHT22;53846;51.984;5.890;2022-07-05T15:52:47;24.80;41.90
66934;DHT22;53846;51.984;5.890;2022-07-05T15:55:16;24.50;40.50
66934;DHT22;53846;51.984;5.890;2022-07-05T15:57:45;24.80;41.90
66934;DHT22;53846;51.984;5.890;2022-07-05T16:00:15;24.40;42.30
66934;DHT22;53846;51.984;5.890;2022-07-05T16:02:44;24.20;41.60
66934;DHT22;53846;51.984;5.890;2022-07-05T16:05:14;24.30;40.90